Alpine Village, CA

6:41 PM PDT on September 16, 2014 (GMT -0700)
RAWS MARKLEEVILLE CA US | Change Station
CLOSE
Current Station
Personal Weather Station
Location: Markleeville, CA
Elevation: 5500 ft
Nearby Weather Stations
Active Advisory: Lake Wind Advisory

Elev 5500 ft 38.69 °N, 119.77 °W | Updated 53 minutes ago

Clear
Clear
82 °F
Feels Like 80 °F
N
7
Wind Variable Wind from WSW
Gusts 22.0 mph

Today
High -- | Low -- °F
--% Chance of Precip.
Yesterday
High -- | Low -- °F
Precip. -- in
6:41 AM 7:05 PM
Last Quarter, 40% visible
Pressure 29.90 in
Visibility 10.0 miles
Clouds Clear
Heat Index 80 °F
Dew Point 30 °F
Humidity 15%
Rainfall 0.00 in
Snow Depth 0 in , 2 in
UV 1 out of 12
Pollen 7.40 out of 12
Air Quality Not available.
Flu Activity Not available.
METAR KTVL 170053Z AUTO VRB04KT 10SM CLR 25/M03 A3010 RMK AO2 SLP125 T02501028

More Conditions Fewer Conditions

Pressure 29.90 in
Visibility 10.0 miles
Clouds Clear
Heat Index 80 °F
Dew Point 30 °F
Humidity 15%
Rainfall 0.00 in
Snow Depth 0 in , 2 in
UV 1 out of 12
Pollen 7.40 out of 12
Air Quality Not available.
Flu Activity Not available.
METAR KTVL 170053Z AUTO VRB04KT 10SM CLR 25/M03 A3010 RMK AO2 SLP125 T02501028

More Conditions Fewer Conditions

10-Day Weather Forecast

Almanac

Astronomy

Sep. 16, 2014 Rise Set
Actual Time 6:41 AM PDT 7:05 PM PDT
Civil Twilight 6:15 AM PDT 7:32 PM PDT
Nautical Twilight 5:43 AM PDT 8:03 PM PDT
Astronomical Twilight 5:11 AM PDT 8:35 PM PDT
Moon No Moon Rise 2:30 PM PDT (9/16)
Length of Visible Light 13h 17m
Length of Day
12h 24m
Tomorrow will be 2m 29s shorter.
Last Quarter, 40% of the Moon is Illuminated
Today
Last Quarter
Sep 24
New
Oct 1
First Quarter
Oct 8
Full
Oct 15
Last Quarter

Today's Extremes

State Highs State Lows

Community

WunderPhotos

Upload Photos

1,753,945 photos uploaded!

Nearby

Snow Depth

Station Depth Elevation
Leavitt Meadows 0 in 7200 ft
CSS Lab 2 in 6900 ft
Adin Mountain 0 in 6200 ft

Earthquake Activity

City Distance Mag. Time & Date
No recent earthquake activity has been reported nearby.
Minimum magnitude displayed is 2.5.

Coastal Water Temperatures

Place Temperature
No Stations Reporting

Nearby Weather Stations